createdAt,value
2022-10-13T00:00:09.625Z,7.75
2022-10-13T00:02:36.284Z,7.35
2022-10-13T00:05:02.866Z,7.93
2022-10-13T00:07:29.479Z,6.60
2022-10-13T00:09:56.075Z,6.70
2022-10-13T00:12:22.708Z,6.85
2022-10-13T00:14:49.343Z,7.57
2022-10-13T00:17:15.966Z,6.90
2022-10-13T00:19:42.656Z,6.80
2022-10-13T00:22:09.272Z,7.72
2022-10-13T00:24:35.913Z,7.90
2022-10-13T00:27:02.486Z,8.13
2022-10-13T00:29:29.119Z,7.47
2022-10-13T00:31:55.706Z,7.20
2022-10-13T00:34:22.310Z,8.75
2022-10-13T00:36:48.921Z,7.68
2022-10-13T00:39:15.544Z,7.90
2022-10-13T00:41:44.198Z,7.93
2022-10-13T00:44:41.407Z,7.65
2022-10-13T00:47:08.604Z,7.22
2022-10-13T00:49:38.572Z,7.93
2022-10-13T00:52:05.185Z,7.00
2022-10-13T00:54:31.896Z,7.70
2022-10-13T00:56:58.542Z,7.43
2022-10-13T00:59:29.201Z,7.97
2022-10-13T01:01:59.396Z,7.35
2022-10-13T01:04:33.965Z,8.25
2022-10-13T01:07:01.581Z,8.38
2022-10-13T01:09:35.085Z,7.57
2022-10-13T01:12:20.593Z,8.02
2022-10-13T01:14:56.462Z,9.52
2022-10-13T01:17:36.432Z,8.35
2022-10-13T01:20:19.390Z,7.90
2022-10-13T01:22:56.799Z,7.88
2022-10-13T01:25:53.805Z,7.20
2022-10-13T01:28:51.017Z,7.82
2022-10-13T01:31:28.640Z,7.88
2022-10-13T01:34:02.662Z,7.93
2022-10-13T01:36:51.116Z,7.78
2022-10-13T01:39:38.239Z,7.50
2022-10-13T01:42:13.279Z,8.43
2022-10-13T01:44:46.885Z,8.10
2022-10-13T01:47:16.097Z,9.27
2022-10-13T01:49:43.685Z,8.57
2022-10-13T01:52:16.909Z,8.38
2022-10-13T01:54:48.394Z,8.30
2022-10-13T01:57:32.531Z,7.75
2022-10-13T02:00:02.136Z,7.72
2022-10-13T02:02:35.084Z,7.18
2022-10-13T02:05:09.185Z,7.75
2022-10-13T02:07:40.575Z,8.15
2022-10-13T02:10:20.346Z,8.18
2022-10-13T02:12:55.917Z,10.07
2022-10-13T02:15:29.027Z,9.68
2022-10-13T02:17:56.168Z,9.45
2022-10-13T02:20:23.046Z,9.38
2022-10-13T02:22:57.480Z,9.52
2022-10-13T02:25:25.133Z,9.68
2022-10-13T02:27:53.056Z,9.15
2022-10-13T02:30:23.088Z,9.02
2022-10-13T02:32:49.752Z,9.10
2022-10-13T02:35:19.629Z,9.80
2022-10-13T02:37:46.324Z,8.93
2022-10-13T02:40:13.560Z,9.00
2022-10-13T02:42:40.311Z,9.00
2022-10-13T02:45:07.555Z,8.48
2022-10-13T02:47:34.278Z,9.68
2022-10-13T02:50:00.896Z,9.82
2022-10-13T02:52:27.480Z,10.45
2022-10-13T02:54:54.169Z,9.90
2022-10-13T02:57:20.754Z,9.32
2022-10-13T02:59:47.336Z,9.82
2022-10-13T03:02:14.262Z,9.13
2022-10-13T03:04:40.869Z,11.07
2022-10-13T03:07:07.575Z,12.38
2022-10-13T03:09:35.271Z,12.13
2022-10-13T03:12:02.209Z,10.75
2022-10-13T03:14:28.859Z,11.35
2022-10-13T03:16:55.461Z,12.32
2022-10-13T03:19:22.210Z,12.00
2022-10-13T03:21:48.827Z,13.23
2022-10-13T03:24:15.648Z,10.95
2022-10-13T03:26:42.346Z,11.25
2022-10-13T03:29:14.361Z,11.32
2022-10-13T03:31:41.717Z,11.85
2022-10-13T03:34:09.569Z,12.82
2022-10-13T03:36:36.211Z,11.98
2022-10-13T03:39:02.896Z,12.25
2022-10-13T03:41:29.522Z,11.65
2022-10-13T03:43:56.186Z,12.40
2022-10-13T03:46:26.519Z,11.95
2022-10-13T03:48:53.181Z,11.40
2022-10-13T03:51:21.823Z,12.95
2022-10-13T03:53:49.723Z,12.02
2022-10-13T03:56:20.638Z,12.18
2022-10-13T03:58:47.516Z,13.27
2022-10-13T04:01:14.487Z,12.77
2022-10-13T04:03:41.179Z,13.15
2022-10-13T04:06:07.946Z,13.43
2022-10-13T04:08:34.685Z,13.25
2022-10-13T04:11:04.762Z,13.20
2022-10-13T04:13:32.324Z,12.98
2022-10-13T04:16:06.594Z,13.23
2022-10-13T04:18:33.358Z,13.73
2022-10-13T04:21:00.293Z,13.75
2022-10-13T04:23:27.044Z,13.85
2022-10-13T04:25:53.716Z,12.93
2022-10-13T04:28:20.396Z,12.88
2022-10-13T04:30:49.623Z,13.65
2022-10-13T04:33:16.788Z,13.35
2022-10-13T04:35:43.504Z,14.18
2022-10-13T04:38:10.134Z,14.13
2022-10-13T04:40:36.954Z,14.70
2022-10-13T04:43:03.730Z,12.77
2022-10-13T04:45:30.480Z,12.80
2022-10-13T04:47:57.106Z,12.75
2022-10-13T04:50:26.996Z,13.18
2022-10-13T04:52:53.661Z,13.57
2022-10-13T04:55:20.381Z,13.23
2022-10-13T04:57:46.989Z,13.45
2022-10-13T05:00:14.068Z,13.60
2022-10-13T05:02:40.687Z,14.38
2022-10-13T05:05:10.923Z,14.05
2022-10-13T05:07:37.593Z,14.20
2022-10-13T05:10:05.094Z,13.82
2022-10-13T05:12:31.854Z,13.50
2022-10-13T05:14:59.000Z,12.25
2022-10-13T05:17:25.600Z,13.68
2022-10-13T05:19:52.724Z,14.40
2022-10-13T05:22:19.758Z,14.05
2022-10-13T05:24:46.626Z,13.15
2022-10-13T05:27:13.914Z,14.07
2022-10-13T05:29:40.970Z,12.50
2022-10-13T05:32:09.583Z,13.38
2022-10-13T05:34:36.410Z,13.40
2022-10-13T05:37:03.167Z,13.55
2022-10-13T05:39:29.788Z,12.95
2022-10-13T05:41:56.440Z,12.45
2022-10-13T05:44:24.333Z,12.90
2022-10-13T05:46:50.937Z,13.32
2022-10-13T05:49:17.557Z,13.70
2022-10-13T05:51:48.919Z,12.60
2022-10-13T05:54:21.599Z,12.68
2022-10-13T05:56:54.272Z,13.80
2022-10-13T05:59:26.931Z,14.45
2022-10-13T06:01:55.109Z,13.98
2022-10-13T06:04:30.219Z,13.40
2022-10-13T06:06:57.137Z,12.75
2022-10-13T06:09:23.790Z,13.00
2022-10-13T06:11:50.400Z,13.20
2022-10-13T06:14:17.139Z,13.23
2022-10-13T06:16:43.749Z,12.55
2022-10-13T06:19:10.389Z,13.32
2022-10-13T06:21:37.067Z,13.27
2022-10-13T06:24:03.969Z,13.52
2022-10-13T06:26:30.606Z,12.82
2022-10-13T06:28:59.722Z,12.63
2022-10-13T06:31:27.105Z,13.93
2022-10-13T06:33:54.023Z,12.85
2022-10-13T06:36:20.700Z,12.95
2022-10-13T06:38:47.392Z,12.38
2022-10-13T06:41:14.423Z,14.00
2022-10-13T06:43:41.531Z,13.73
2022-10-13T06:46:08.551Z,13.43
2022-10-13T06:48:35.513Z,13.23
2022-10-13T06:51:04.615Z,13.50
2022-10-13T06:53:31.702Z,13.20
2022-10-13T06:55:59.830Z,13.10
2022-10-13T06:58:26.966Z,13.55
2022-10-13T07:00:54.427Z,13.15
2022-10-13T07:03:21.945Z,14.40
2022-10-13T07:05:48.612Z,13.20
2022-10-13T07:08:15.845Z,13.13
2022-10-13T07:10:42.747Z,13.85
2022-10-13T07:13:09.425Z,14.13
2022-10-13T07:15:39.576Z,13.80
2022-10-13T07:18:06.754Z,13.60
2022-10-13T07:20:33.998Z,14.18
2022-10-13T07:23:00.837Z,14.23
2022-10-13T07:25:27.686Z,14.50
2022-10-13T07:27:54.397Z,13.50
2022-10-13T07:30:22.050Z,13.60
2022-10-13T07:32:49.371Z,14.00
2022-10-13T07:35:16.416Z,14.10
2022-10-13T07:37:43.051Z,14.07
2022-10-13T07:40:10.325Z,14.95
2022-10-13T07:42:37.087Z,16.08
2022-10-13T07:45:04.194Z,16.48
2022-10-13T07:47:31.099Z,16.23
2022-10-13T07:49:57.797Z,15.50
2022-10-13T07:52:24.458Z,15.55
2022-10-13T07:54:51.421Z,15.50
2022-10-13T07:57:18.463Z,15.02
2022-10-13T07:59:45.230Z,15.40
2022-10-13T08:02:11.815Z,15.55
2022-10-13T08:04:39.120Z,15.80
2022-10-13T08:07:06.732Z,15.05
2022-10-13T08:09:36.488Z,14.18
2022-10-13T08:12:03.653Z,14.77
2022-10-13T08:14:31.352Z,13.82
2022-10-13T08:16:58.260Z,14.23
2022-10-13T08:19:26.596Z,13.43
2022-10-13T08:21:58.141Z,12.75
2022-10-13T08:24:26.815Z,12.77
2022-10-13T08:26:53.448Z,13.10
2022-10-13T08:29:21.791Z,13.20
2022-10-13T08:34:22.670Z,13.65
2022-10-13T08:36:52.997Z,14.38
2022-10-13T08:39:20.875Z,13.27
2022-10-13T08:41:47.925Z,15.07
2022-10-13T08:47:30.199Z,14.35
2022-10-13T08:50:01.060Z,14.82
2022-10-13T08:52:47.830Z,14.30
2022-10-13T08:55:29.711Z,15.38
2022-10-13T08:57:56.518Z,15.02
2022-10-13T09:00:23.168Z,13.68
2022-10-13T09:02:50.780Z,13.57
2022-10-13T09:05:39.556Z,13.65
2022-10-13T09:08:17.049Z,13.70
2022-10-13T09:10:49.408Z,13.40
2022-10-13T09:13:16.059Z,14.15
2022-10-13T09:15:45.058Z,14.00
2022-10-13T09:18:13.798Z,14.18
2022-10-13T09:20:41.152Z,14.60
2022-10-13T09:23:17.698Z,15.55
2022-10-13T09:25:48.423Z,14.90
2022-10-13T09:28:20.622Z,14.80
2022-10-13T09:30:47.788Z,15.80
2022-10-13T09:33:20.024Z,15.60
2022-10-13T09:36:03.266Z,16.23
2022-10-13T09:38:30.028Z,17.00
2022-10-13T09:41:04.774Z,15.70
2022-10-13T09:43:37.226Z,18.25
2022-10-13T09:46:18.999Z,18.65
2022-10-13T09:48:49.636Z,17.10
2022-10-13T09:51:40.182Z,16.67
2022-10-13T09:54:26.019Z,17.88
2022-10-13T09:56:59.552Z,17.00
2022-10-13T09:59:36.883Z,17.08
2022-10-13T10:02:28.433Z,16.90
2022-10-13T10:05:00.012Z,16.50
2022-10-13T10:07:31.790Z,17.67
2022-10-13T10:10:06.483Z,16.08
2022-10-13T10:12:37.330Z,18.17
2022-10-13T10:15:17.207Z,18.00
2022-10-13T10:17:52.860Z,16.08
2022-10-13T10:20:50.648Z,16.95
2022-10-13T10:23:43.388Z,16.35
2022-10-13T10:26:23.172Z,15.57
2022-10-13T10:29:06.884Z,16.27
2022-10-13T10:31:54.158Z,14.82
2022-10-13T10:34:34.995Z,14.75
2022-10-13T10:37:25.124Z,14.13
2022-10-13T10:40:04.887Z,14.00
2022-10-13T10:43:02.126Z,12.95
2022-10-13T10:48:02.875Z,13.30
2022-10-13T10:50:32.021Z,12.77
2022-10-13T10:53:03.146Z,12.32
2022-10-13T10:55:47.932Z,13.15
2022-10-13T10:58:29.857Z,13.55
2022-10-13T11:01:02.649Z,14.90
2022-10-13T11:03:54.769Z,13.30
2022-10-13T11:06:28.325Z,13.23
2022-10-13T11:08:55.404Z,14.82
2022-10-13T11:11:26.584Z,12.80
2022-10-13T11:14:21.604Z,13.23
2022-10-13T11:17:10.834Z,12.73
2022-10-13T11:19:39.247Z,13.93
2022-10-13T11:22:05.870Z,13.27
2022-10-13T11:24:33.482Z,12.13
2022-10-13T11:27:15.357Z,12.00
2022-10-13T11:29:55.895Z,12.48
2022-10-13T11:32:42.522Z,11.82
2022-10-13T11:35:10.140Z,11.13
2022-10-13T11:38:09.278Z,12.25
2022-10-13T11:40:57.144Z,11.93
2022-10-13T11:43:40.186Z,10.88
2022-10-13T11:46:19.894Z,11.77
2022-10-13T11:49:02.948Z,10.45
2022-10-13T11:51:44.937Z,12.48
2022-10-13T11:54:34.187Z,12.30
2022-10-13T11:57:00.987Z,11.07
2022-10-13T11:59:31.117Z,10.38
2022-10-13T12:02:00.365Z,11.15
2022-10-13T12:04:28.292Z,10.07
2022-10-13T12:06:59.465Z,10.35
2022-10-13T12:09:27.481Z,10.48
2022-10-13T12:12:02.450Z,10.32
2022-10-13T12:14:35.512Z,9.63
2022-10-13T12:17:02.534Z,10.48
2022-10-13T12:19:32.225Z,10.70
2022-10-13T12:22:01.448Z,10.38
2022-10-13T12:24:30.356Z,10.30
2022-10-13T12:26:58.521Z,10.77
2022-10-13T12:29:29.438Z,10.38
2022-10-13T12:31:58.591Z,9.50
2022-10-13T12:34:29.170Z,10.57
2022-10-13T12:37:01.169Z,8.95
2022-10-13T12:39:31.287Z,9.30
2022-10-13T12:41:58.505Z,10.07
2022-10-13T12:44:28.441Z,10.10
2022-10-13T12:46:59.086Z,11.05
2022-10-13T12:49:28.528Z,10.57
2022-10-13T12:52:14.806Z,9.55
2022-10-13T12:54:52.378Z,10.07
2022-10-13T12:57:35.337Z,9.80
2022-10-13T13:00:04.528Z,10.75
2022-10-13T13:02:32.672Z,11.15
2022-10-13T13:04:59.451Z,11.32
2022-10-13T13:07:31.373Z,10.32
2022-10-13T13:10:01.059Z,10.48
2022-10-13T13:12:29.454Z,11.10
2022-10-13T13:14:57.341Z,9.82
2022-10-13T13:20:29.587Z,10.27
2022-10-13T13:22:56.246Z,10.13
2022-10-13T13:25:23.770Z,10.63
2022-10-13T13:27:50.908Z,11.02
2022-10-13T13:30:20.618Z,10.57
2022-10-13T13:32:47.432Z,10.77
2022-10-13T13:35:14.216Z,11.95
2022-10-13T13:37:44.571Z,14.57
2022-10-13T13:40:17.298Z,10.48
2022-10-13T13:42:44.004Z,11.27
2022-10-13T13:45:15.319Z,11.57
2022-10-13T13:47:42.424Z,11.18
2022-10-13T13:50:24.460Z,11.65
2022-10-13T13:52:51.325Z,11.32
2022-10-13T13:55:18.588Z,11.07
2022-10-13T13:57:45.819Z,11.85
2022-10-13T14:00:14.320Z,12.05
2022-10-13T14:02:42.802Z,10.93
2022-10-13T14:05:11.152Z,11.45
2022-10-13T14:07:38.555Z,10.90
2022-10-13T14:10:07.217Z,12.18
2022-10-13T14:12:34.269Z,11.65
2022-10-13T14:15:01.042Z,11.50
2022-10-13T14:17:28.680Z,11.88
2022-10-13T14:19:55.521Z,11.50
2022-10-13T14:22:23.047Z,12.13
2022-10-13T14:24:50.149Z,10.57
2022-10-13T14:27:16.809Z,12.18
2022-10-13T14:29:43.558Z,11.50
2022-10-13T14:32:10.152Z,10.93
2022-10-13T14:34:36.804Z,11.35
2022-10-13T14:37:03.470Z,12.15
2022-10-13T14:39:30.177Z,13.43
2022-10-13T14:41:56.866Z,11.85
2022-10-13T14:44:23.541Z,11.90
2022-10-13T14:46:50.183Z,12.55
2022-10-13T14:49:16.816Z,12.07
2022-10-13T14:51:43.823Z,12.00
2022-10-13T14:54:10.810Z,11.80
2022-10-13T14:56:37.490Z,12.02
2022-10-13T14:59:06.040Z,12.57
2022-10-13T15:01:33.600Z,12.57
2022-10-13T15:04:01.642Z,12.77
2022-10-13T15:06:28.928Z,13.15
2022-10-13T15:08:55.627Z,13.15
2022-10-13T15:11:22.715Z,12.02
2022-10-13T15:13:49.381Z,12.88
2022-10-13T15:16:18.755Z,12.57
2022-10-13T15:18:46.040Z,11.85
2022-10-13T15:21:13.191Z,12.68
2022-10-13T15:23:40.022Z,12.70
2022-10-13T15:26:07.066Z,10.90
2022-10-13T15:28:37.758Z,12.52
2022-10-13T15:31:04.981Z,10.95
2022-10-13T15:33:32.253Z,11.65
2022-10-13T15:35:59.663Z,11.85
2022-10-13T15:38:26.796Z,11.68
2022-10-13T15:40:58.455Z,10.73
2022-10-13T15:43:25.101Z,11.65
2022-10-13T15:45:59.643Z,11.95
2022-10-13T15:48:27.320Z,11.75
2022-10-13T15:50:54.028Z,12.27
2022-10-13T15:53:20.673Z,15.90
2022-10-13T15:55:48.267Z,15.27
2022-10-13T15:58:15.399Z,17.25
2022-10-13T16:00:43.016Z,14.70
2022-10-13T16:03:15.198Z,12.00
2022-10-13T16:05:42.905Z,11.00
2022-10-13T16:08:09.605Z,12.02
2022-10-13T16:10:39.760Z,11.70
2022-10-13T16:13:06.541Z,11.25
2022-10-13T16:15:33.461Z,11.80
2022-10-13T16:18:00.089Z,12.27
2022-10-13T16:20:34.108Z,11.48
2022-10-13T16:23:01.424Z,11.13
2022-10-13T16:25:29.419Z,11.75
2022-10-13T16:27:56.599Z,11.60
2022-10-13T16:30:23.205Z,12.05
2022-10-13T16:32:49.930Z,11.10
2022-10-13T16:35:16.564Z,11.32
2022-10-13T16:37:43.182Z,12.15
2022-10-13T16:40:10.297Z,12.45
2022-10-13T16:42:36.961Z,13.25
2022-10-13T16:45:03.895Z,12.57
2022-10-13T16:47:30.543Z,12.75
2022-10-13T16:49:57.279Z,12.65
2022-10-13T16:52:23.934Z,12.70
2022-10-13T16:54:53.760Z,12.10
2022-10-13T16:57:20.739Z,12.55
2022-10-13T16:59:47.624Z,13.43
2022-10-13T17:02:15.262Z,13.68
2022-10-13T17:04:42.549Z,12.27
2022-10-13T17:07:09.222Z,11.60
2022-10-13T17:09:41.381Z,12.55
2022-10-13T17:12:08.044Z,14.73
2022-10-13T17:14:34.700Z,12.93
2022-10-13T17:17:01.413Z,13.27
2022-10-13T17:19:28.098Z,11.63
2022-10-13T17:22:04.463Z,12.00
2022-10-13T17:24:31.302Z,12.43
2022-10-13T17:26:57.970Z,12.20
2022-10-13T17:29:24.733Z,12.55
2022-10-13T17:31:51.346Z,12.80
2022-10-13T17:34:17.935Z,12.70
2022-10-13T17:36:44.596Z,13.40
2022-10-13T17:39:11.456Z,11.90
2022-10-13T17:41:38.132Z,13.65
2022-10-13T17:44:04.788Z,12.23
2022-10-13T17:46:37.515Z,13.35
2022-10-13T17:49:06.248Z,13.15
2022-10-13T17:51:33.049Z,12.02
2022-10-13T17:54:00.755Z,11.82
2022-10-13T17:56:28.544Z,12.70
2022-10-13T17:58:55.205Z,13.55
2022-10-13T18:01:25.697Z,13.73
2022-10-13T18:03:55.929Z,13.20
2022-10-13T18:06:23.059Z,14.82
2022-10-13T18:08:51.025Z,13.82
2022-10-13T18:11:21.275Z,15.43
2022-10-13T18:13:48.333Z,13.60
2022-10-13T18:16:18.230Z,14.50
2022-10-13T18:18:46.610Z,14.32
2022-10-13T18:21:16.459Z,13.98
2022-10-13T18:23:43.617Z,14.23
2022-10-13T18:26:13.684Z,13.88
2022-10-13T18:28:43.371Z,13.77
2022-10-13T18:31:13.042Z,13.50
2022-10-13T18:33:40.550Z,12.52
2022-10-13T18:36:24.268Z,13.07
2022-10-13T18:38:52.066Z,13.50
2022-10-13T18:41:20.926Z,14.90
2022-10-13T18:43:47.571Z,12.88
2022-10-13T18:46:14.341Z,14.57
2022-10-13T18:48:41.276Z,15.93
2022-10-13T18:51:12.312Z,14.98
2022-10-13T18:53:41.679Z,17.35
2022-10-13T18:56:11.830Z,14.95
2022-10-13T18:58:38.907Z,14.00
2022-10-13T19:01:09.098Z,14.00
2022-10-13T19:03:38.314Z,15.68
2022-10-13T19:06:07.684Z,13.65
2022-10-13T19:08:34.928Z,13.93
2022-10-13T19:11:01.913Z,13.25
2022-10-13T19:13:28.944Z,13.73
2022-10-13T19:16:04.634Z,12.45
2022-10-13T19:18:31.513Z,13.18
2022-10-13T19:20:58.135Z,16.35
2022-10-13T19:23:24.863Z,14.70
2022-10-13T19:25:51.760Z,13.07
2022-10-13T19:28:18.769Z,15.85
2022-10-13T19:30:45.811Z,13.77
2022-10-13T19:33:14.340Z,13.68
2022-10-13T19:35:42.675Z,13.65
2022-10-13T19:38:10.078Z,12.20
2022-10-13T19:40:42.151Z,13.10
2022-10-13T19:43:10.105Z,13.63
2022-10-13T19:45:36.816Z,15.00
2022-10-13T19:48:03.557Z,13.57
2022-10-13T19:50:33.771Z,12.93
2022-10-13T19:53:00.493Z,12.82
2022-10-13T19:55:27.170Z,15.00
2022-10-13T19:57:53.823Z,13.70
2022-10-13T20:00:20.460Z,14.77
2022-10-13T20:02:47.112Z,14.23
2022-10-13T20:05:13.767Z,13.73
2022-10-13T20:07:40.411Z,12.80
2022-10-13T20:10:07.244Z,14.27
2022-10-13T20:12:33.910Z,13.98
2022-10-13T20:15:01.034Z,13.95
2022-10-13T20:17:27.860Z,15.20
2022-10-13T20:19:54.508Z,13.40
2022-10-13T20:22:21.204Z,14.40
2022-10-13T20:24:47.829Z,15.43
2022-10-13T20:27:16.908Z,14.27
2022-10-13T20:29:43.579Z,15.65
2022-10-13T20:32:10.266Z,14.93
2022-10-13T20:34:36.955Z,15.73
2022-10-13T20:37:03.598Z,16.92
2022-10-13T20:39:30.205Z,14.85
2022-10-13T20:41:56.842Z,13.60
2022-10-13T20:44:23.517Z,12.90
2022-10-13T20:46:50.177Z,14.02
2022-10-13T20:49:16.908Z,13.82
2022-10-13T20:51:44.094Z,14.93
2022-10-13T20:54:13.142Z,14.02
2022-10-13T20:56:43.223Z,15.10
2022-10-13T20:59:12.289Z,15.05
2022-10-13T21:01:39.117Z,14.38
2022-10-13T21:04:07.257Z,14.88
2022-10-13T21:06:35.707Z,14.18
2022-10-13T21:09:04.592Z,14.13
2022-10-13T21:11:34.621Z,15.32
2022-10-13T21:14:06.796Z,14.77
2022-10-13T21:16:34.289Z,14.98
2022-10-13T21:19:01.603Z,15.00
2022-10-13T21:21:31.312Z,14.73
2022-10-13T21:24:00.877Z,14.90
2022-10-13T21:26:30.533Z,15.50
2022-10-13T21:28:58.159Z,16.00
2022-10-13T21:31:26.994Z,15.18
2022-10-13T21:33:54.706Z,14.25
2022-10-13T21:36:25.093Z,15.73
2022-10-13T21:38:54.936Z,14.98
2022-10-13T21:41:21.955Z,15.75
2022-10-13T21:43:50.093Z,15.73
2022-10-13T21:46:19.722Z,16.85
2022-10-13T21:48:47.861Z,15.32
2022-10-13T21:51:18.757Z,15.10
2022-10-13T21:53:51.777Z,15.25
2022-10-13T21:56:19.324Z,15.25
2022-10-13T21:58:47.346Z,15.50
2022-10-13T22:01:14.059Z,15.93
2022-10-13T22:03:41.716Z,15.68
2022-10-13T22:06:18.248Z,16.65
2022-10-13T22:08:46.937Z,14.48
2022-10-13T22:11:14.021Z,14.73
2022-10-13T22:13:40.878Z,16.08
2022-10-13T22:16:11.224Z,15.77
2022-10-13T22:18:37.857Z,15.60
2022-10-13T22:21:07.659Z,15.18
2022-10-13T22:23:34.425Z,16.25
2022-10-13T22:26:01.041Z,15.75
2022-10-13T22:28:29.021Z,14.18
2022-10-13T22:30:57.883Z,15.70
2022-10-13T22:33:24.532Z,17.13
2022-10-13T22:35:51.173Z,16.73
2022-10-13T22:38:17.792Z,17.70
2022-10-13T22:40:44.386Z,17.90
2022-10-13T22:43:10.979Z,17.80
2022-10-13T22:45:37.600Z,19.38
2022-10-13T22:48:04.488Z,20.05
2022-10-13T22:50:31.098Z,16.40
2022-10-13T22:52:57.728Z,17.55
2022-10-13T22:55:24.339Z,17.05
2022-10-13T22:57:51.038Z,16.67
2022-10-13T23:00:17.973Z,17.38
2022-10-13T23:02:44.636Z,17.50
2022-10-13T23:05:11.251Z,17.20
2022-10-13T23:07:37.862Z,17.85
2022-10-13T23:10:04.768Z,17.42
2022-10-13T23:12:31.372Z,17.50
2022-10-13T23:14:58.067Z,16.92
2022-10-13T23:17:24.917Z,16.38
2022-10-13T23:19:51.606Z,18.70
2022-10-13T23:22:18.210Z,18.55
2022-10-13T23:24:44.860Z,17.25
2022-10-13T23:27:11.481Z,18.70
2022-10-13T23:29:38.086Z,19.90
2022-10-13T23:32:09.774Z,20.10
2022-10-13T23:34:36.668Z,22.00
2022-10-13T23:37:03.320Z,20.42
2022-10-13T23:39:29.938Z,19.05
2022-10-13T23:41:56.539Z,18.83
2022-10-13T23:44:23.316Z,19.45
2022-10-13T23:46:49.966Z,19.75
2022-10-13T23:49:16.613Z,20.73
2022-10-13T23:51:44.257Z,21.02
2022-10-13T23:54:11.207Z,21.23
2022-10-13T23:56:38.562Z,20.73
2022-10-13T23:59:05.920Z,21.20
